createdAt,value
2019-01-12T00:00:33.726Z,68.99
2019-01-12T00:03:03.377Z,69.18
2019-01-12T00:05:32.859Z,68.83
2019-01-12T00:08:02.513Z,69.03
2019-01-12T00:10:32.027Z,68.98
2019-01-12T00:13:01.427Z,69.11
2019-01-12T00:15:30.891Z,69.14
2019-01-12T00:18:00.480Z,69.11
2019-01-12T00:20:29.921Z,69.09
2019-01-12T00:22:59.312Z,69.51
2019-01-12T00:25:28.794Z,69.18
2019-01-12T00:27:58.327Z,69.28
2019-01-12T00:30:27.775Z,69.61
2019-01-12T00:32:57.395Z,69.55
2019-01-12T00:35:26.900Z,69.39
2019-01-12T00:37:56.439Z,69.57
2019-01-12T00:40:26.059Z,69.82
2019-01-12T00:42:55.566Z,69.58
2019-01-12T00:45:25.046Z,69.41
2019-01-12T00:47:54.654Z,69.70
2019-01-12T00:50:24.124Z,69.64
2019-01-12T00:52:53.543Z,69.72
2019-01-12T00:55:23.045Z,70.19
2019-01-12T00:57:52.496Z,70.07
2019-01-12T01:00:22.946Z,69.78
2019-01-12T01:02:52.772Z,70.01
2019-01-12T01:05:22.224Z,69.94
2019-01-12T01:07:51.656Z,70.13
2019-01-12T01:10:23.306Z,70.08
2019-01-12T01:12:52.916Z,70.16
2019-01-12T01:15:22.365Z,70.47
2019-01-12T01:17:51.987Z,70.50
2019-01-12T01:20:21.480Z,70.78
2019-01-12T01:22:51.012Z,70.78
2019-01-12T01:25:20.521Z,70.64
2019-01-12T01:27:49.942Z,70.67
2019-01-12T01:30:20.694Z,70.89
2019-01-12T01:32:50.450Z,70.90
2019-01-12T01:35:19.925Z,71.04
2019-01-12T01:37:49.417Z,71.07
2019-01-12T01:40:19.815Z,71.23
2019-01-12T01:42:49.341Z,71.15
2019-01-12T01:45:19.119Z,71.11
2019-01-12T01:47:48.739Z,71.32
2019-01-12T01:50:18.266Z,71.38
2019-01-12T01:52:48.473Z,71.33
2019-01-12T01:55:18.267Z,71.52
2019-01-12T01:57:47.791Z,71.71
2019-01-12T02:00:18.890Z,71.62
2019-01-12T02:02:48.597Z,71.57
2019-01-12T02:05:18.069Z,71.68
2019-01-12T02:07:47.570Z,71.48
2019-01-12T02:10:22.280Z,71.47
2019-01-12T02:12:51.690Z,71.38
2019-01-12T02:15:22.626Z,71.56
2019-01-12T02:17:52.105Z,71.55
2019-01-12T02:20:23.115Z,71.58
2019-01-12T02:22:52.788Z,71.65
2019-01-12T02:25:22.303Z,71.79
2019-01-12T02:27:51.704Z,72.00
2019-01-12T02:30:23.917Z,71.82
2019-01-12T02:32:53.956Z,72.14
2019-01-12T02:35:23.384Z,71.96
2019-01-12T02:37:52.892Z,72.20
2019-01-12T02:40:22.397Z,72.03
2019-01-12T02:42:51.902Z,72.41
2019-01-12T02:45:21.351Z,72.22
2019-01-12T02:47:50.795Z,72.32
2019-01-12T02:50:20.369Z,72.67
2019-01-12T02:52:49.870Z,72.80
2019-01-12T02:55:19.471Z,72.83
2019-01-12T02:57:48.894Z,72.86
2019-01-12T03:00:19.779Z,72.97
2019-01-12T03:02:49.326Z,72.92
2019-01-12T03:05:18.774Z,73.13
2019-01-12T03:07:48.201Z,72.82
2019-01-12T03:10:18.515Z,72.63
2019-01-12T03:12:48.030Z,72.74
2019-01-12T03:15:20.572Z,72.85
2019-01-12T03:17:50.177Z,73.09
2019-01-12T03:20:19.907Z,73.10
2019-01-12T03:22:49.423Z,72.89
2019-01-12T03:25:19.388Z,72.59
2019-01-12T03:27:48.953Z,72.75
2019-01-12T03:30:19.868Z,72.97
2019-01-12T03:32:49.681Z,73.05
2019-01-12T03:35:19.199Z,72.81
2019-01-12T03:37:48.665Z,73.27
2019-01-12T03:40:20.243Z,73.21
2019-01-12T03:42:49.818Z,73.34
2019-01-12T03:45:20.483Z,73.63
2019-01-12T03:47:50.248Z,73.86
2019-01-12T03:50:19.823Z,73.90
2019-01-12T03:52:49.258Z,74.26
2019-01-12T03:55:25.631Z,74.26
2019-01-12T03:57:50.252Z,74.78
2019-01-12T04:00:26.503Z,74.78
2019-01-12T04:02:55.909Z,74.72
2019-01-12T04:05:25.351Z,74.76
2019-01-12T04:07:55.153Z,74.77
2019-01-12T04:10:24.598Z,74.82
2019-01-12T04:12:54.018Z,74.74
2019-01-12T04:15:23.496Z,74.66
2019-01-12T04:17:52.968Z,74.89
2019-01-12T04:20:22.449Z,74.67
2019-01-12T04:22:52.055Z,74.49
2019-01-12T04:25:21.535Z,74.64
2019-01-12T04:27:50.955Z,74.77
2019-01-12T04:30:20.667Z,74.61
2019-01-12T04:32:50.209Z,74.52
2019-01-12T04:35:19.798Z,74.66
2019-01-12T04:37:49.278Z,74.94
2019-01-12T04:40:19.966Z,74.98
2019-01-12T04:42:49.498Z,75.37
2019-01-12T04:45:18.986Z,75.53
2019-01-12T04:47:48.449Z,75.37
2019-01-12T04:50:18.408Z,75.22
2019-01-12T04:52:47.967Z,75.14
2019-01-12T04:55:17.563Z,75.36
2019-01-12T04:57:47.033Z,75.37
2019-01-12T05:00:18.823Z,75.65
2019-01-12T05:02:48.316Z,75.81
2019-01-12T05:05:18.003Z,75.22
2019-01-12T05:07:47.715Z,75.31
2019-01-12T05:10:17.494Z,75.32
2019-01-12T05:12:46.907Z,75.26
2019-01-12T05:15:16.865Z,75.78
2019-01-12T05:17:46.497Z,75.60
2019-01-12T05:20:20.829Z,75.65
2019-01-12T05:22:50.241Z,75.59
2019-01-12T05:25:19.959Z,75.62
2019-01-12T05:27:49.676Z,75.53
2019-01-12T05:30:23.216Z,75.06
2019-01-12T05:32:52.708Z,74.80
2019-01-12T05:35:22.214Z,74.59
2019-01-12T05:37:51.805Z,74.59
2019-01-12T05:40:21.384Z,74.65
2019-01-12T05:42:50.998Z,74.72
2019-01-12T05:45:20.582Z,74.66
2019-01-12T05:47:50.031Z,74.74
2019-01-12T05:50:19.647Z,74.34
2019-01-12T05:52:49.183Z,74.25
2019-01-12T05:55:18.677Z,74.16
2019-01-12T05:57:48.300Z,74.05
2019-01-12T06:00:23.231Z,73.87
2019-01-12T06:02:52.807Z,73.86
2019-01-12T06:05:22.278Z,74.01
2019-01-12T06:07:51.730Z,74.21
2019-01-12T06:10:21.261Z,74.21
2019-01-12T06:12:50.853Z,73.95
2019-01-12T06:15:20.440Z,73.98
2019-01-12T06:17:49.958Z,73.86
2019-01-12T06:20:19.468Z,73.84
2019-01-12T06:22:48.881Z,73.86
2019-01-12T06:25:18.411Z,74.11
2019-01-12T06:27:47.919Z,74.08
2019-01-12T06:30:19.496Z,73.82
2019-01-12T06:32:49.056Z,73.85
2019-01-12T06:35:18.630Z,73.89
2019-01-12T06:37:48.523Z,73.92
2019-01-12T06:40:19.355Z,73.77
2019-01-12T06:42:49.055Z,73.67
2019-01-12T06:45:19.120Z,73.79
2019-01-12T06:47:49.246Z,74.00
2019-01-12T06:50:20.128Z,73.80
2019-01-12T06:52:49.617Z,73.57
2019-01-12T06:55:19.379Z,73.42
2019-01-12T06:57:48.923Z,73.39
2019-01-12T07:00:20.233Z,73.46
2019-01-12T07:02:49.769Z,73.57
2019-01-12T07:05:19.431Z,73.70
2019-01-12T07:07:48.948Z,73.73
2019-01-12T07:10:18.445Z,73.80
2019-01-12T07:12:48.134Z,73.67
2019-01-12T07:15:17.650Z,73.74
2019-01-12T07:17:47.284Z,73.85
2019-01-12T07:20:18.207Z,73.86
2019-01-12T07:22:47.765Z,74.11
2019-01-12T07:25:17.416Z,73.56
2019-01-12T07:27:47.257Z,73.33
2019-01-12T07:30:19.927Z,73.65
2019-01-12T07:32:49.837Z,73.52
2019-01-12T07:35:19.360Z,73.17
2019-01-12T07:37:48.982Z,73.00
2019-01-12T07:40:18.917Z,72.67
2019-01-12T07:42:48.599Z,72.52
2019-01-12T07:45:18.274Z,72.25
2019-01-12T07:47:47.901Z,72.10
2019-01-12T07:50:18.422Z,72.26
2019-01-12T07:52:47.927Z,71.81
2019-01-12T07:55:17.500Z,71.34
2019-01-12T07:57:47.051Z,71.01
2019-01-12T08:00:19.373Z,71.17
2019-01-12T08:02:49.194Z,70.58
2019-01-12T08:05:19.581Z,70.01
2019-01-12T08:07:49.114Z,70.53
2019-01-12T08:10:27.072Z,70.07
2019-01-12T08:12:56.662Z,69.64
2019-01-12T08:15:26.152Z,69.80
2019-01-12T08:17:55.739Z,69.53
2019-01-12T08:20:25.305Z,69.54
2019-01-12T08:22:54.705Z,69.71
2019-01-12T08:25:24.255Z,69.27
2019-01-12T08:27:54.785Z,69.21
2019-01-12T08:30:24.238Z,69.67
2019-01-12T08:32:53.724Z,69.22
2019-01-12T08:35:23.216Z,69.06
2019-01-12T08:37:52.734Z,68.94
2019-01-12T08:40:22.245Z,68.86
2019-01-12T08:42:51.721Z,68.90
2019-01-12T08:45:21.206Z,68.13
2019-01-12T08:47:50.763Z,67.72
2019-01-12T08:50:20.997Z,66.34
2019-01-12T08:52:50.641Z,66.00
2019-01-12T08:55:20.154Z,65.82
2019-01-12T08:57:49.695Z,65.57
2019-01-12T09:00:21.643Z,65.60
2019-01-12T09:02:51.848Z,64.53
2019-01-12T09:05:21.319Z,65.04
2019-01-12T09:07:50.746Z,64.65
2019-01-12T09:10:21.691Z,64.03
2019-01-12T09:12:51.282Z,64.02
2019-01-12T09:15:21.325Z,63.32
2019-01-12T09:17:50.960Z,63.44
2019-01-12T09:20:20.535Z,63.94
2019-01-12T09:22:50.019Z,63.02
2019-01-12T09:25:19.837Z,62.90
2019-01-12T09:27:49.270Z,63.01
2019-01-12T09:30:20.835Z,62.67
2019-01-12T09:32:50.630Z,62.40
2019-01-12T09:35:20.109Z,62.33
2019-01-12T09:37:49.610Z,61.83
2019-01-12T09:40:21.210Z,62.15
2019-01-12T09:42:50.802Z,61.95
2019-01-12T09:45:20.766Z,61.55
2019-01-12T09:47:50.481Z,61.22
2019-01-12T09:50:21.155Z,61.37
2019-01-12T09:52:50.747Z,60.86
2019-01-12T09:55:20.411Z,61.20
2019-01-12T09:57:50.402Z,60.69
2019-01-12T10:00:25.481Z,61.19
2019-01-12T10:02:54.903Z,61.08
2019-01-12T10:05:24.672Z,60.53
2019-01-12T10:07:54.274Z,60.39
2019-01-12T10:10:23.861Z,60.48
2019-01-12T10:12:53.264Z,60.33
2019-01-12T10:15:22.784Z,60.51
2019-01-12T10:17:52.344Z,60.84
2019-01-12T10:20:21.901Z,60.82
2019-01-12T10:22:52.407Z,60.53
2019-01-12T10:25:22.069Z,60.50
2019-01-12T10:27:51.505Z,60.65
2019-01-12T10:30:26.168Z,60.45
2019-01-12T10:32:56.959Z,60.46
2019-01-12T10:35:26.490Z,59.37
2019-01-12T10:37:56.042Z,59.67
2019-01-12T10:40:25.759Z,59.50
2019-01-12T10:42:55.452Z,59.55
2019-01-12T10:45:25.914Z,59.39
2019-01-12T10:47:56.082Z,59.35
2019-01-12T10:50:36.397Z,59.13
2019-01-12T10:53:06.560Z,59.42
2019-01-12T10:55:36.017Z,59.16
2019-01-12T10:58:08.979Z,58.41
2019-01-12T11:00:39.975Z,58.86
2019-01-12T11:03:09.977Z,58.50
2019-01-12T11:05:39.769Z,58.55
2019-01-12T11:08:09.576Z,58.26
2019-01-12T11:10:39.113Z,57.96
2019-01-12T11:13:08.587Z,58.37
2019-01-12T11:15:38.074Z,58.26
2019-01-12T11:18:07.890Z,58.30
2019-01-12T11:20:37.492Z,57.65
2019-01-12T11:23:07.109Z,57.38
2019-01-12T11:25:42.827Z,57.56
2019-01-12T11:28:07.932Z,57.20
2019-01-12T11:30:37.450Z,57.61
2019-01-12T11:33:06.900Z,57.04
2019-01-12T11:35:37.873Z,57.13
2019-01-12T11:38:07.462Z,57.20
2019-01-12T11:40:37.208Z,57.10
2019-01-12T11:43:07.085Z,57.22
2019-01-12T11:45:36.478Z,57.18
2019-01-12T11:48:06.714Z,57.36
2019-01-12T11:50:36.248Z,57.30
2019-01-12T11:53:05.826Z,57.56
2019-01-12T11:55:35.298Z,57.38
2019-01-12T11:58:06.034Z,57.29
2019-01-12T12:00:35.621Z,56.83
2019-01-12T12:03:06.601Z,57.15
2019-01-12T12:05:36.015Z,57.01
2019-01-12T12:08:05.702Z,56.48
2019-01-12T12:10:35.191Z,57.07
2019-01-12T12:13:04.912Z,57.02
2019-01-12T12:15:34.300Z,57.00
2019-01-12T12:18:03.777Z,57.22
2019-01-12T12:20:33.406Z,57.44
2019-01-12T12:23:02.872Z,57.29
2019-01-12T12:25:32.310Z,57.07
2019-01-12T12:28:02.037Z,56.68
2019-01-12T12:30:31.984Z,56.47
2019-01-12T12:33:01.407Z,56.58
2019-01-12T12:35:37.478Z,56.63
2019-01-12T12:38:02.379Z,56.41
2019-01-12T12:40:31.804Z,56.38
2019-01-12T12:43:01.556Z,56.69
2019-01-12T12:45:32.980Z,56.31
2019-01-12T12:48:02.469Z,55.84
2019-01-12T12:50:32.080Z,55.78
2019-01-12T12:53:01.461Z,55.63
2019-01-12T12:55:30.960Z,55.48
2019-01-12T12:58:01.180Z,55.24
2019-01-12T13:00:34.494Z,55.33
2019-01-12T13:03:04.728Z,55.04
2019-01-12T13:05:34.107Z,55.06
2019-01-12T13:08:03.585Z,55.20
2019-01-12T13:10:33.909Z,54.98
2019-01-12T13:13:03.515Z,54.50
2019-01-12T13:15:32.934Z,54.68
2019-01-12T13:18:02.357Z,54.68
2019-01-12T13:20:31.832Z,54.55
2019-01-12T13:23:01.303Z,54.50
2019-01-12T13:25:30.725Z,54.36
2019-01-12T13:28:00.091Z,54.38
2019-01-12T13:30:29.666Z,53.59
2019-01-12T13:32:59.397Z,52.34
2019-01-12T13:35:28.789Z,51.69
2019-01-12T13:37:58.282Z,51.72
2019-01-12T13:40:29.455Z,51.91
2019-01-12T13:42:58.957Z,52.05
2019-01-12T13:45:28.443Z,52.28
2019-01-12T13:47:57.878Z,52.56
2019-01-12T13:50:28.560Z,53.22
2019-01-12T13:52:58.058Z,53.14
2019-01-12T13:55:27.726Z,53.29
2019-01-12T13:57:57.157Z,53.26
2019-01-12T14:00:29.258Z,53.40
2019-01-12T14:03:01.569Z,53.35
2019-01-12T14:05:31.251Z,53.70
2019-01-12T14:08:00.899Z,53.44
2019-01-12T14:10:30.531Z,53.62
2019-01-12T14:13:00.123Z,53.70
2019-01-12T14:15:29.722Z,53.81
2019-01-12T14:17:59.364Z,53.69
2019-01-12T14:20:34.170Z,54.33
2019-01-12T14:23:03.618Z,54.92
2019-01-12T14:25:33.140Z,55.26
2019-01-12T14:28:02.629Z,55.36
2019-01-12T14:30:32.279Z,55.63
2019-01-12T14:33:01.698Z,55.77
2019-01-12T14:35:31.183Z,55.83
2019-01-12T14:38:00.901Z,56.37
2019-01-12T14:40:30.330Z,56.50
2019-01-12T14:42:59.711Z,56.76
2019-01-12T14:45:33.298Z,57.25
2019-01-12T14:48:03.189Z,57.21
2019-01-12T14:50:32.685Z,57.59
2019-01-12T14:53:02.103Z,57.56
2019-01-12T14:55:31.617Z,57.85
2019-01-12T14:58:02.748Z,58.18
2019-01-12T15:00:32.643Z,58.00
2019-01-12T15:03:02.099Z,57.96
2019-01-12T15:05:32.843Z,58.19
2019-01-12T15:08:02.268Z,58.44
2019-01-12T15:10:31.872Z,58.73
2019-01-12T15:13:01.372Z,58.86
2019-01-12T15:15:30.854Z,58.98
2019-01-12T15:18:00.276Z,59.04
2019-01-12T15:20:31.438Z,59.53
2019-01-12T15:23:01.201Z,59.62
2019-01-12T15:25:30.577Z,59.90
2019-01-12T15:27:59.975Z,60.12
2019-01-12T15:30:33.385Z,60.10
2019-01-12T15:33:05.356Z,59.95
2019-01-12T15:35:36.119Z,59.81
2019-01-12T15:38:05.851Z,59.14
2019-01-12T15:40:35.232Z,58.59
2019-01-12T15:43:04.859Z,57.95
2019-01-12T15:45:34.536Z,57.78
2019-01-12T15:48:04.115Z,58.02
2019-01-12T15:50:33.611Z,57.86
2019-01-12T15:53:03.158Z,57.89
2019-01-12T15:55:32.747Z,58.01
2019-01-12T15:58:02.237Z,57.77
2019-01-12T16:00:32.001Z,58.20
2019-01-12T16:03:01.364Z,58.39
2019-01-12T16:05:31.566Z,58.69
2019-01-12T16:08:01.314Z,59.11
2019-01-12T16:10:30.827Z,59.29
2019-01-12T16:13:00.227Z,59.21
2019-01-12T16:15:29.854Z,59.47
2019-01-12T16:17:59.846Z,59.90
2019-01-12T16:20:37.752Z,59.77
2019-01-12T16:23:07.347Z,60.05
2019-01-12T16:25:36.892Z,60.25
2019-01-12T16:28:06.462Z,60.71
2019-01-12T16:30:35.961Z,61.11
2019-01-12T16:33:05.651Z,61.62
2019-01-12T16:35:35.081Z,62.08
2019-01-12T16:38:04.600Z,62.22
2019-01-12T16:40:34.086Z,63.05
2019-01-12T16:43:04.012Z,63.33
2019-01-12T16:45:33.500Z,63.92
2019-01-12T16:48:04.574Z,64.14
2019-01-12T16:50:34.112Z,64.52
2019-01-12T16:53:03.645Z,64.75
2019-01-12T16:55:32.989Z,64.58
2019-01-12T16:58:02.512Z,64.18
2019-01-12T17:00:32.706Z,63.90
2019-01-12T17:03:02.443Z,62.97
2019-01-12T17:05:31.956Z,62.16
2019-01-12T17:08:01.561Z,62.39
2019-01-12T17:10:32.119Z,62.76
2019-01-12T17:13:01.961Z,62.95
2019-01-12T17:15:34.767Z,63.10
2019-01-12T17:18:02.787Z,62.41
2019-01-12T17:20:32.226Z,62.27
2019-01-12T17:23:03.294Z,62.74
2019-01-12T17:25:33.046Z,63.72
2019-01-12T17:28:02.678Z,64.74
2019-01-12T17:30:32.145Z,65.52
2019-01-12T17:33:01.571Z,66.29
2019-01-12T17:35:31.119Z,66.91
2019-01-12T17:38:00.862Z,67.17
2019-01-12T17:40:30.348Z,67.49
2019-01-12T17:42:59.901Z,67.26
2019-01-12T17:45:29.354Z,67.12
2019-01-12T17:47:58.858Z,67.14
2019-01-12T17:50:29.203Z,66.86
2019-01-12T17:52:58.698Z,66.90
2019-01-12T17:55:28.922Z,66.60
2019-01-12T17:57:58.382Z,66.96
2019-01-12T18:00:49.982Z,66.49
2019-01-12T18:03:19.534Z,66.29
2019-01-12T18:05:48.940Z,65.95
2019-01-12T18:08:18.342Z,65.96
2019-01-12T18:10:48.253Z,66.17
2019-01-12T18:13:17.806Z,65.99
2019-01-12T18:15:47.237Z,65.61
2019-01-12T18:18:16.790Z,65.35
2019-01-12T18:20:46.197Z,65.36
2019-01-12T18:23:15.579Z,65.25
2019-01-12T18:25:45.388Z,65.19
2019-01-12T18:28:14.860Z,64.79
2019-01-12T18:30:44.264Z,64.67
2019-01-12T18:33:13.902Z,64.66
2019-01-12T18:35:43.392Z,64.51
2019-01-12T18:38:12.900Z,64.56
2019-01-12T18:40:42.326Z,64.54
2019-01-12T18:43:11.748Z,64.69
2019-01-12T18:45:41.545Z,64.90
2019-01-12T18:48:11.100Z,65.22
2019-01-12T18:50:40.496Z,65.37
2019-01-12T18:53:10.184Z,65.19
2019-01-12T18:55:39.947Z,65.23
2019-01-12T18:58:09.435Z,65.08
2019-01-12T19:00:38.817Z,64.78
2019-01-12T19:03:08.295Z,64.53
2019-01-12T19:05:37.811Z,64.38
2019-01-12T19:08:07.316Z,64.67
2019-01-12T19:10:36.756Z,64.56
2019-01-12T19:13:06.501Z,64.80
2019-01-12T19:15:36.017Z,64.91
2019-01-12T19:18:06.062Z,64.74
2019-01-12T19:20:35.460Z,64.88
2019-01-12T19:23:04.878Z,64.77
2019-01-12T19:25:34.554Z,64.71
2019-01-12T19:28:04.032Z,64.57
2019-01-12T19:30:33.419Z,64.54
2019-01-12T19:33:02.851Z,64.34
2019-01-12T19:35:32.337Z,64.42
2019-01-12T19:38:01.728Z,64.29
2019-01-12T19:40:31.262Z,64.05
2019-01-12T19:43:00.750Z,63.88
2019-01-12T19:45:30.127Z,63.90
2019-01-12T19:47:59.804Z,63.85
2019-01-12T19:50:29.267Z,63.88
2019-01-12T19:52:58.795Z,63.73
2019-01-12T19:55:29.425Z,63.87
2019-01-12T19:57:58.902Z,63.88
2019-01-12T20:00:33.039Z,64.20
2019-01-12T20:03:02.653Z,64.48
2019-01-12T20:05:32.407Z,64.61
2019-01-12T20:08:01.884Z,64.70
2019-01-12T20:10:31.529Z,64.77
2019-01-12T20:13:01.031Z,64.52
2019-01-12T20:15:30.479Z,64.26
2019-01-12T20:18:00.077Z,64.44
2019-01-12T20:20:29.901Z,64.36
2019-01-12T20:22:59.393Z,64.64
2019-01-12T20:25:30.576Z,65.06
2019-01-12T20:28:02.689Z,65.23
2019-01-12T20:31:06.369Z,65.25
2019-01-12T20:34:09.763Z,65.25
2019-01-12T20:37:28.782Z,65.06
2019-01-12T20:40:39.109Z,65.23
2019-01-12T20:43:57.706Z,65.46
2019-01-12T20:46:50.187Z,65.53
2019-01-12T20:49:47.497Z,65.69
2019-01-12T20:52:53.406Z,66.01
2019-01-12T20:55:59.735Z,66.21
2019-01-12T20:58:57.007Z,66.64
2019-01-12T21:01:55.022Z,66.98
2019-01-12T21:05:04.437Z,67.26
2019-01-12T21:07:51.710Z,67.46
2019-01-12T21:11:08.185Z,67.70
2019-01-12T21:14:24.997Z,68.00
2019-01-12T21:17:14.544Z,67.98
2019-01-12T21:19:48.442Z,68.36
2019-01-12T21:22:15.604Z,68.45
2019-01-12T21:24:45.002Z,68.98
2019-01-12T21:27:14.961Z,69.31
2019-01-12T21:29:44.462Z,69.49
2019-01-12T21:32:13.964Z,69.46
2019-01-12T21:34:43.518Z,69.22
2019-01-12T21:37:12.959Z,69.46
2019-01-12T21:39:42.450Z,69.30
2019-01-12T21:42:11.985Z,69.32
2019-01-12T21:44:41.385Z,69.38
2019-01-12T21:47:10.916Z,69.48
2019-01-12T21:49:40.410Z,69.22
2019-01-12T21:52:09.782Z,69.33
2019-01-12T21:54:39.274Z,69.47
2019-01-12T21:57:08.962Z,69.42
2019-01-12T21:59:42.437Z,68.99
2019-01-12T22:02:09.569Z,69.03
2019-01-12T22:04:39.195Z,68.99
2019-01-12T22:07:08.705Z,68.91
2019-01-12T22:09:38.077Z,68.83
2019-01-12T22:12:07.531Z,68.87
2019-01-12T22:14:37.130Z,68.80
2019-01-12T22:17:06.611Z,68.48
2019-01-12T22:19:36.052Z,68.44
2019-01-12T22:22:06.004Z,68.02
2019-01-12T22:24:35.484Z,67.94
2019-01-12T22:27:04.936Z,68.11
2019-01-12T22:29:34.441Z,68.08
2019-01-12T22:32:03.921Z,68.01
2019-01-12T22:34:33.351Z,67.74
2019-01-12T22:37:02.746Z,67.40
2019-01-12T22:39:32.234Z,67.29
2019-01-12T22:42:01.745Z,67.15
2019-01-12T22:44:31.137Z,67.08
2019-01-12T22:47:00.886Z,67.01
2019-01-12T22:49:30.403Z,66.82
2019-01-12T22:51:59.880Z,66.88
2019-01-12T22:54:29.505Z,66.93
2019-01-12T22:56:58.908Z,66.99
2019-01-12T22:59:28.382Z,66.91
2019-01-12T23:02:03.769Z,67.02
2019-01-12T23:04:33.951Z,66.78
2019-01-12T23:07:03.497Z,66.75
2019-01-12T23:09:32.946Z,66.82
2019-01-12T23:12:02.322Z,66.97
2019-01-12T23:14:33.015Z,67.26
2019-01-12T23:17:02.763Z,67.39
2019-01-12T23:19:32.208Z,67.28
2019-01-12T23:22:01.668Z,67.27
2019-01-12T23:24:31.418Z,67.26
2019-01-12T23:27:00.947Z,67.62
2019-01-12T23:29:30.367Z,67.90
2019-01-12T23:31:59.862Z,68.31
2019-01-12T23:34:29.395Z,68.72
2019-01-12T23:36:58.880Z,68.73
2019-01-12T23:39:28.477Z,69.06
2019-01-12T23:41:57.875Z,69.45
2019-01-12T23:44:27.371Z,69.71
2019-01-12T23:46:56.959Z,69.58
2019-01-12T23:49:26.459Z,69.65
2019-01-12T23:51:55.974Z,69.82
2019-01-12T23:54:25.409Z,69.95
2019-01-12T23:56:54.812Z,70.31
2019-01-12T23:59:24.292Z,70.63
